Weaver, South Dakota
Current Conditions -  °F | °C
As of 12:53 AM on Thursday 23 Oct 2014 (Local Time) from KICR Reporting Station
Clear Clear  
Wind Chill: 52°   Ceiling: Unl
Heat Index: 52°   Visibility: 10mi
Dew Point: 39°   Wind: 7mph
Humidity: 61%   Direction: 230°SW
Pressure: 30.02"   Gusts: NA
Location:  43.2923°N, 99.8934°W
Report Text: KICR 230553Z AUTO 23006KT 10SM CLR 11/04 A3002 RMK AO2 SLP168 T01110039 10156 20100 401890100 56001
Loading
Personal Weather Stations






























Interactive Weather Map
Tropical Storm Tracking
New forecast layout! Learn more

10-Day Weather Forecast

Advertisements
Track Severe Weather on mobile